sensor_id;sensor_type;location;lat;lon;timestamp;pressure;altitude;pressure_sealevel;temperature;humidity
17521;BME280;8878;-33.370;-70.552;2023-04-20T00:02:03;91788.13;;;21.14;31.39
17521;BME280;8878;-33.370;-70.552;2023-04-20T00:04:33;91793.28;;;21.06;30.11
17521;BME280;8878;-33.370;-70.552;2023-04-20T00:07:02;91779.63;;;21.11;30.56
17521;BME280;8878;-33.370;-70.552;2023-04-20T00:09:32;91787.50;;;20.92;29.62
17521;BME280;8878;-33.370;-70.552;2023-04-20T00:12:01;91788.41;;;20.84;29.10
17521;BME280;8878;-33.370;-70.552;2023-04-20T00:14:30;91795.75;;;20.99;29.06
17521;BME280;8878;-33.370;-70.552;2023-04-20T00:17:00;91795.53;;;21.04;28.91
17521;BME280;8878;-33.370;-70.552;2023-04-20T00:19:31;91790.63;;;21.06;29.29
17521;BME280;8878;-33.370;-70.552;2023-04-20T00:22:00;91782.44;;;21.15;29.17
17521;BME280;8878;-33.370;-70.552;2023-04-20T00:24:30;91787.72;;;21.24;28.33
17521;BME280;8878;-33.370;-70.552;2023-04-20T00:26:59;91780.78;;;21.23;29.55
17521;BME280;8878;-33.370;-70.552;2023-04-20T00:29:28;91788.13;;;21.14;30.49
17521;BME280;8878;-33.370;-70.552;2023-04-20T00:31:58;91787.06;;;21.02;30.26
17521;BME280;8878;-33.370;-70.552;2023-04-20T00:34:30;91793.88;;;20.88;30.45
17521;BME280;8878;-33.370;-70.552;2023-04-20T00:36:59;91788.19;;;20.77;29.85
17521;BME280;8878;-33.370;-70.552;2023-04-20T00:39:29;91786.28;;;20.90;29.78
17521;BME280;8878;-33.370;-70.552;2023-04-20T00:42:04;91783.81;;;20.85;29.94
17521;BME280;8878;-33.370;-70.552;2023-04-20T00:44:33;91785.59;;;20.93;29.58
17521;BME280;8878;-33.370;-70.552;2023-04-20T00:47:03;91794.31;;;20.90;28.67
17521;BME280;8878;-33.370;-70.552;2023-04-20T00:49:34;91793.66;;;20.93;28.45
17521;BME280;8878;-33.370;-70.552;2023-04-20T00:52:03;91787.53;;;20.80;27.53
17521;BME280;8878;-33.370;-70.552;2023-04-20T00:54:33;91781.91;;;20.97;27.13
17521;BME280;8878;-33.370;-70.552;2023-04-20T00:57:04;91779.47;;;20.92;26.95
17521;BME280;8878;-33.370;-70.552;2023-04-20T00:59:33;91778.47;;;20.85;27.25
17521;BME280;8878;-33.370;-70.552;2023-04-20T01:02:03;91780.16;;;20.77;28.02
17521;BME280;8878;-33.370;-70.552;2023-04-20T01:04:34;91781.25;;;20.76;27.77
17521;BME280;8878;-33.370;-70.552;2023-04-20T01:07:04;91781.81;;;20.69;28.04
17521;BME280;8878;-33.370;-70.552;2023-04-20T01:09:36;91785.28;;;20.70;27.56
17521;BME280;8878;-33.370;-70.552;2023-04-20T01:12:05;91781.16;;;20.85;28.42
17521;BME280;8878;-33.370;-70.552;2023-04-20T01:14:35;91786.84;;;20.83;28.26
17521;BME280;8878;-33.370;-70.552;2023-04-20T01:17:04;91780.69;;;20.83;28.98
17521;BME280;8878;-33.370;-70.552;2023-04-20T01:19:35;91783.59;;;20.78;29.06
17521;BME280;8878;-33.370;-70.552;2023-04-20T01:22:05;91787.50;;;20.68;29.95
17521;BME280;8878;-33.370;-70.552;2023-04-20T01:24:36;91779.47;;;20.68;29.06
17521;BME280;8878;-33.370;-70.552;2023-04-20T01:27:06;91781.63;;;20.75;28.56
17521;BME280;8878;-33.370;-70.552;2023-04-20T01:29:35;91781.94;;;20.73;28.65
17521;BME280;8878;-33.370;-70.552;2023-04-20T01:32:05;91776.25;;;20.75;27.68
17521;BME280;8878;-33.370;-70.552;2023-04-20T01:34:34;91775.69;;;20.69;26.64
17521;BME280;8878;-33.370;-70.552;2023-04-20T01:37:04;91775.81;;;20.73;26.64
17521;BME280;8878;-33.370;-70.552;2023-04-20T01:39:37;91772.09;;;20.77;26.16
17521;BME280;8878;-33.370;-70.552;2023-04-20T01:42:07;91773.78;;;20.82;27.80
17521;BME280;8878;-33.370;-70.552;2023-04-20T01:44:37;91779.94;;;20.70;28.83
17521;BME280;8878;-33.370;-70.552;2023-04-20T01:47:06;91777.03;;;20.51;28.19
17521;BME280;8878;-33.370;-70.552;2023-04-20T01:49:36;91773.66;;;20.54;28.65
17521;BME280;8878;-33.370;-70.552;2023-04-20T01:52:06;91778.38;;;20.57;28.85
17521;BME280;8878;-33.370;-70.552;2023-04-20T01:54:38;91775.78;;;20.48;29.44
17521;BME280;8878;-33.370;-70.552;2023-04-20T01:57:08;91774.38;;;20.39;29.89
17521;BME280;8878;-33.370;-70.552;2023-04-20T01:59:37;91773.66;;;20.17;30.36
17521;BME280;8878;-33.370;-70.552;2023-04-20T02:02:07;91776.75;;;20.07;30.59
17521;BME280;8878;-33.370;-70.552;2023-04-20T02:04:37;91772.72;;;20.01;30.15
17521;BME280;8878;-33.370;-70.552;2023-04-20T02:07:07;91775.41;;;20.01;29.95
17521;BME280;8878;-33.370;-70.552;2023-04-20T02:09:38;91764.91;;;20.08;30.62
17521;BME280;8878;-33.370;-70.552;2023-04-20T02:12:07;91757.91;;;20.16;30.87
17521;BME280;8878;-33.370;-70.552;2023-04-20T02:14:49;91763.91;;;20.13;30.46
17521;BME280;8878;-33.370;-70.552;2023-04-20T02:17:18;91767.47;;;20.05;30.95
17521;BME280;8878;-33.370;-70.552;2023-04-20T02:19:47;91762.66;;;19.98;30.97
17521;BME280;8878;-33.370;-70.552;2023-04-20T02:22:17;91762.22;;;19.96;31.05
17521;BME280;8878;-33.370;-70.552;2023-04-20T02:24:48;91763.53;;;19.90;30.75
17521;BME280;8878;-33.370;-70.552;2023-04-20T02:27:17;91765.19;;;19.82;31.30
17521;BME280;8878;-33.370;-70.552;2023-04-20T02:29:46;91763.41;;;19.74;32.07
17521;BME280;8878;-33.370;-70.552;2023-04-20T02:32:16;91769.31;;;19.68;32.13
17521;BME280;8878;-33.370;-70.552;2023-04-20T02:34:45;91772.16;;;19.63;31.69
17521;BME280;8878;-33.370;-70.552;2023-04-20T02:37:14;91772.25;;;19.54;31.05
17521;BME280;8878;-33.370;-70.552;2023-04-20T02:39:44;91769.63;;;19.45;30.03
17521;BME280;8878;-33.370;-70.552;2023-04-20T02:42:15;91767.34;;;19.56;29.32
17521;BME280;8878;-33.370;-70.552;2023-04-20T02:44:44;91760.91;;;19.69;30.21
17521;BME280;8878;-33.370;-70.552;2023-04-20T02:47:15;91763.41;;;19.74;30.17
17521;BME280;8878;-33.370;-70.552;2023-04-20T02:49:44;91758.69;;;19.71;31.50
17521;BME280;8878;-33.370;-70.552;2023-04-20T02:52:14;91750.34;;;19.73;30.80
17521;BME280;8878;-33.370;-70.552;2023-04-20T02:54:43;91761.38;;;19.71;30.58
17521;BME280;8878;-33.370;-70.552;2023-04-20T02:57:15;91753.69;;;19.70;30.87
17521;BME280;8878;-33.370;-70.552;2023-04-20T02:59:44;91759.69;;;19.67;31.29
17521;BME280;8878;-33.370;-70.552;2023-04-20T03:02:13;91760.13;;;19.69;30.54
17521;BME280;8878;-33.370;-70.552;2023-04-20T03:04:42;91756.81;;;19.72;30.33
17521;BME280;8878;-33.370;-70.552;2023-04-20T03:07:12;91756.25;;;19.66;30.71
17521;BME280;8878;-33.370;-70.552;2023-04-20T03:09:41;91751.50;;;19.51;31.75
17521;BME280;8878;-33.370;-70.552;2023-04-20T03:12:10;91760.97;;;19.48;31.70
17521;BME280;8878;-33.370;-70.552;2023-04-20T03:14:41;91755.34;;;19.41;31.79
17521;BME280;8878;-33.370;-70.552;2023-04-20T03:17:11;91751.63;;;19.34;31.98
17521;BME280;8878;-33.370;-70.552;2023-04-20T03:19:40;91755.50;;;19.24;32.22
17521;BME280;8878;-33.370;-70.552;2023-04-20T03:22:09;91751.25;;;19.23;32.38
17521;BME280;8878;-33.370;-70.552;2023-04-20T03:24:39;91746.13;;;19.18;32.82
17521;BME280;8878;-33.370;-70.552;2023-04-20T03:27:09;91762.59;;;19.20;32.02
17521;BME280;8878;-33.370;-70.552;2023-04-20T03:29:41;91753.78;;;19.20;31.86
17521;BME280;8878;-33.370;-70.552;2023-04-20T03:32:10;91750.34;;;19.19;32.21
17521;BME280;8878;-33.370;-70.552;2023-04-20T03:34:39;91747.47;;;19.24;33.46
17521;BME280;8878;-33.370;-70.552;2023-04-20T03:37:09;91748.06;;;19.09;33.29
17521;BME280;8878;-33.370;-70.552;2023-04-20T03:39:38;91756.31;;;19.04;32.92
17521;BME280;8878;-33.370;-70.552;2023-04-20T03:42:07;91761.03;;;18.98;31.94
17521;BME280;8878;-33.370;-70.552;2023-04-20T03:44:37;91767.91;;;19.08;31.96
17521;BME280;8878;-33.370;-70.552;2023-04-20T03:47:08;91766.31;;;19.07;32.57
17521;BME280;8878;-33.370;-70.552;2023-04-20T03:49:37;91759.94;;;18.78;32.73
17521;BME280;8878;-33.370;-70.552;2023-04-20T03:52:07;91756.16;;;18.80;32.58
17521;BME280;8878;-33.370;-70.552;2023-04-20T03:54:36;91759.19;;;18.69;32.48
17521;BME280;8878;-33.370;-70.552;2023-04-20T03:57:06;91754.91;;;18.77;32.12
17521;BME280;8878;-33.370;-70.552;2023-04-20T03:59:35;91753.59;;;18.83;31.94
17521;BME280;8878;-33.370;-70.552;2023-04-20T04:02:07;91752.44;;;18.93;31.36
17521;BME280;8878;-33.370;-70.552;2023-04-20T04:04:39;91753.75;;;18.87;31.05
17521;BME280;8878;-33.370;-70.552;2023-04-20T04:07:09;91751.06;;;18.87;30.18
17521;BME280;8878;-33.370;-70.552;2023-04-20T04:09:38;91753.69;;;18.95;29.47
17521;BME280;8878;-33.370;-70.552;2023-04-20T04:12:08;91747.75;;;19.10;30.17
17521;BME280;8878;-33.370;-70.552;2023-04-20T04:14:37;91750.69;;;19.17;30.29
17521;BME280;8878;-33.370;-70.552;2023-04-20T04:17:08;91756.16;;;19.21;30.39
17521;BME280;8878;-33.370;-70.552;2023-04-20T04:19:38;91753.72;;;19.28;29.95
17521;BME280;8878;-33.370;-70.552;2023-04-20T04:22:07;91754.56;;;19.20;30.77
17521;BME280;8878;-33.370;-70.552;2023-04-20T04:24:37;91757.25;;;19.20;30.59
17521;BME280;8878;-33.370;-70.552;2023-04-20T04:27:07;91753.16;;;19.23;29.73
17521;BME280;8878;-33.370;-70.552;2023-04-20T04:29:36;91754.97;;;19.31;29.03
17521;BME280;8878;-33.370;-70.552;2023-04-20T04:32:09;91758.19;;;19.24;28.37
17521;BME280;8878;-33.370;-70.552;2023-04-20T04:34:39;91756.19;;;19.33;27.54
17521;BME280;8878;-33.370;-70.552;2023-04-20T04:37:10;91752.63;;;19.50;28.58
17521;BME280;8878;-33.370;-70.552;2023-04-20T04:39:40;91757.19;;;19.49;28.53
17521;BME280;8878;-33.370;-70.552;2023-04-20T04:42:09;91758.28;;;19.48;29.57
17521;BME280;8878;-33.370;-70.552;2023-04-20T04:44:38;91761.47;;;19.42;30.28
17521;BME280;8878;-33.370;-70.552;2023-04-20T04:47:10;91762.84;;;19.27;29.94
17521;BME280;8878;-33.370;-70.552;2023-04-20T04:49:39;91765.13;;;19.37;28.88
17521;BME280;8878;-33.370;-70.552;2023-04-20T04:52:09;91765.38;;;19.44;27.85
17521;BME280;8878;-33.370;-70.552;2023-04-20T04:54:39;91764.88;;;19.51;27.71
17521;BME280;8878;-33.370;-70.552;2023-04-20T04:57:09;91771.28;;;19.59;27.32
17521;BME280;8878;-33.370;-70.552;2023-04-20T04:59:38;91764.34;;;19.58;29.65
17521;BME280;8878;-33.370;-70.552;2023-04-20T05:02:09;91769.25;;;19.55;29.82
17521;BME280;8878;-33.370;-70.552;2023-04-20T05:04:40;91783.19;;;19.40;29.58
17521;BME280;8878;-33.370;-70.552;2023-04-20T05:07:09;91776.44;;;19.22;27.66
17521;BME280;8878;-33.370;-70.552;2023-04-20T05:09:39;91768.03;;;19.32;28.05
17521;BME280;8878;-33.370;-70.552;2023-04-20T05:12:09;91769.69;;;19.37;27.79
17521;BME280;8878;-33.370;-70.552;2023-04-20T05:14:39;91761.00;;;19.40;28.98
17521;BME280;8878;-33.370;-70.552;2023-04-20T05:17:11;91758.44;;;19.31;31.67
17521;BME280;8878;-33.370;-70.552;2023-04-20T05:19:40;91765.41;;;19.24;30.68
17521;BME280;8878;-33.370;-70.552;2023-04-20T05:22:09;91758.50;;;19.23;30.63
17521;BME280;8878;-33.370;-70.552;2023-04-20T05:24:38;91765.16;;;19.16;31.49
17521;BME280;8878;-33.370;-70.552;2023-04-20T05:27:08;91766.31;;;19.07;31.31
17521;BME280;8878;-33.370;-70.552;2023-04-20T05:29:38;91771.03;;;19.10;30.98
17521;BME280;8878;-33.370;-70.552;2023-04-20T05:32:09;91770.38;;;19.13;29.73
17521;BME280;8878;-33.370;-70.552;2023-04-20T05:34:39;91772.44;;;19.28;30.27
17521;BME280;8878;-33.370;-70.552;2023-04-20T05:37:08;91780.72;;;19.35;28.45
17521;BME280;8878;-33.370;-70.552;2023-04-20T05:39:38;91772.59;;;19.52;26.41
17521;BME280;8878;-33.370;-70.552;2023-04-20T05:42:07;91778.69;;;19.74;27.73
17521;BME280;8878;-33.370;-70.552;2023-04-20T05:44:37;91777.47;;;19.83;27.27
17521;BME280;8878;-33.370;-70.552;2023-04-20T05:47:07;91776.31;;;19.72;29.46
17521;BME280;8878;-33.370;-70.552;2023-04-20T05:49:38;91773.63;;;19.60;28.56
17521;BME280;8878;-33.370;-70.552;2023-04-20T05:52:07;91776.63;;;19.59;28.25
17521;BME280;8878;-33.370;-70.552;2023-04-20T05:54:36;91776.41;;;19.43;30.22
17521;BME280;8878;-33.370;-70.552;2023-04-20T05:57:06;91776.47;;;19.34;29.21
17521;BME280;8878;-33.370;-70.552;2023-04-20T05:59:35;91774.00;;;19.29;30.07
17521;BME280;8878;-33.370;-70.552;2023-04-20T06:02:05;91777.81;;;19.07;31.10
17521;BME280;8878;-33.370;-70.552;2023-04-20T06:04:36;91783.94;;;18.87;31.21
17521;BME280;8878;-33.370;-70.552;2023-04-20T06:07:05;91774.66;;;18.85;31.44
17521;BME280;8878;-33.370;-70.552;2023-04-20T06:09:35;91779.69;;;18.86;31.26
17521;BME280;8878;-33.370;-70.552;2023-04-20T06:12:04;91776.91;;;18.83;30.85
17521;BME280;8878;-33.370;-70.552;2023-04-20T06:14:35;91771.13;;;18.72;30.94
17521;BME280;8878;-33.370;-70.552;2023-04-20T06:17:04;91768.50;;;18.63;31.62
17521;BME280;8878;-33.370;-70.552;2023-04-20T06:19:34;91770.75;;;18.61;31.65
17521;BME280;8878;-33.370;-70.552;2023-04-20T06:22:08;91775.47;;;18.56;31.31
17521;BME280;8878;-33.370;-70.552;2023-04-20T06:24:38;91772.16;;;18.59;31.32
17521;BME280;8878;-33.370;-70.552;2023-04-20T06:27:08;91778.75;;;18.61;31.63
17521;BME280;8878;-33.370;-70.552;2023-04-20T06:29:37;91778.19;;;18.47;32.49
17521;BME280;8878;-33.370;-70.552;2023-04-20T06:32:07;91774.09;;;18.41;31.94
17521;BME280;8878;-33.370;-70.552;2023-04-20T06:34:36;91773.66;;;18.39;31.84
17521;BME280;8878;-33.370;-70.552;2023-04-20T06:37:08;91776.34;;;18.30;32.63
17521;BME280;8878;-33.370;-70.552;2023-04-20T06:39:37;91779.22;;;18.25;32.41
17521;BME280;8878;-33.370;-70.552;2023-04-20T06:42:07;91774.59;;;18.34;31.73
17521;BME280;8878;-33.370;-70.552;2023-04-20T06:44:36;91780.56;;;18.40;31.35
17521;BME280;8878;-33.370;-70.552;2023-04-20T06:47:05;91781.03;;;18.33;32.68
17521;BME280;8878;-33.370;-70.552;2023-04-20T06:49:35;91785.34;;;18.26;33.08
17521;BME280;8878;-33.370;-70.552;2023-04-20T06:52:06;91785.97;;;18.23;31.74
17521;BME280;8878;-33.370;-70.552;2023-04-20T06:54:36;91778.78;;;18.15;31.81
17521;BME280;8878;-33.370;-70.552;2023-04-20T06:57:05;91779.59;;;18.07;33.02
17521;BME280;8878;-33.370;-70.552;2023-04-20T06:59:35;91778.69;;;18.03;33.58
17521;BME280;8878;-33.370;-70.552;2023-04-20T07:02:04;91775.06;;;17.98;33.04
17521;BME280;8878;-33.370;-70.552;2023-04-20T07:04:33;91771.94;;;17.96;32.38
17521;BME280;8878;-33.370;-70.552;2023-04-20T07:07:02;91782.91;;;18.04;31.83
17521;BME280;8878;-33.370;-70.552;2023-04-20T07:09:33;91774.94;;;17.95;33.14
17521;BME280;8878;-33.370;-70.552;2023-04-20T07:12:03;91782.19;;;17.86;32.67
17521;BME280;8878;-33.370;-70.552;2023-04-20T07:14:32;91771.31;;;17.91;31.43
17521;BME280;8878;-33.370;-70.552;2023-04-20T07:17:01;91784.63;;;17.99;31.15
17521;BME280;8878;-33.370;-70.552;2023-04-20T07:19:31;91773.03;;;17.95;31.73
17521;BME280;8878;-33.370;-70.552;2023-04-20T07:22:00;91767.25;;;17.93;32.73
17521;BME280;8878;-33.370;-70.552;2023-04-20T07:24:30;91770.41;;;17.78;34.36
17521;BME280;8878;-33.370;-70.552;2023-04-20T07:27:01;91769.50;;;17.57;34.23
17521;BME280;8878;-33.370;-70.552;2023-04-20T07:29:31;91765.44;;;17.51;34.47
17521;BME280;8878;-33.370;-70.552;2023-04-20T07:32:00;91763.25;;;17.53;34.08
17521;BME280;8878;-33.370;-70.552;2023-04-20T07:34:30;91764.81;;;17.45;34.22
17521;BME280;8878;-33.370;-70.552;2023-04-20T07:36:59;91759.03;;;17.35;33.51
17521;BME280;8878;-33.370;-70.552;2023-04-20T07:39:28;91768.13;;;17.42;32.97
17521;BME280;8878;-33.370;-70.552;2023-04-20T07:41:58;91765.31;;;17.47;33.26
17521;BME280;8878;-33.370;-70.552;2023-04-20T07:44:29;91762.34;;;17.40;33.63
17521;BME280;8878;-33.370;-70.552;2023-04-20T07:46:58;91765.94;;;17.36;34.20
17521;BME280;8878;-33.370;-70.552;2023-04-20T07:49:27;91768.75;;;17.31;34.23
17521;BME280;8878;-33.370;-70.552;2023-04-20T07:51:57;91760.16;;;17.25;34.02
17521;BME280;8878;-33.370;-70.552;2023-04-20T07:54:27;91762.97;;;17.29;33.67
17521;BME280;8878;-33.370;-70.552;2023-04-20T07:56:56;91759.97;;;17.30;33.91
17521;BME280;8878;-33.370;-70.552;2023-04-20T07:59:29;91757.63;;;17.29;33.02
17521;BME280;8878;-33.370;-70.552;2023-04-20T08:01:59;91758.75;;;17.19;32.84
17521;BME280;8878;-33.370;-70.552;2023-04-20T08:04:29;91759.06;;;17.09;32.94
17521;BME280;8878;-33.370;-70.552;2023-04-20T08:06:58;91757.97;;;17.10;32.79
17521;BME280;8878;-33.370;-70.552;2023-04-20T08:09:27;91753.25;;;17.15;32.84
17521;BME280;8878;-33.370;-70.552;2023-04-20T08:11:57;91761.41;;;17.10;32.92
17521;BME280;8878;-33.370;-70.552;2023-04-20T08:14:26;91759.50;;;17.19;32.67
17521;BME280;8878;-33.370;-70.552;2023-04-20T08:16:57;91760.28;;;17.29;32.42
17521;BME280;8878;-33.370;-70.552;2023-04-20T08:19:26;91760.75;;;17.31;32.53
17521;BME280;8878;-33.370;-70.552;2023-04-20T08:21:56;91754.97;;;17.29;32.42
17521;BME280;8878;-33.370;-70.552;2023-04-20T08:24:25;91758.75;;;17.19;32.75
17521;BME280;8878;-33.370;-70.552;2023-04-20T08:26:55;91760.16;;;16.91;32.46
17521;BME280;8878;-33.370;-70.552;2023-04-20T08:29:25;91763.91;;;16.98;32.50
17521;BME280;8878;-33.370;-70.552;2023-04-20T08:31:54;91758.56;;;16.98;32.06
17521;BME280;8878;-33.370;-70.552;2023-04-20T08:34:25;91760.78;;;17.05;32.05
17521;BME280;8878;-33.370;-70.552;2023-04-20T08:36:54;91757.97;;;17.01;32.40
17521;BME280;8878;-33.370;-70.552;2023-04-20T08:39:24;91765.00;;;17.06;32.44
17521;BME280;8878;-33.370;-70.552;2023-04-20T08:41:54;91760.94;;;17.08;32.67
17521;BME280;8878;-33.370;-70.552;2023-04-20T08:44:24;91759.06;;;17.00;33.02
17521;BME280;8878;-33.370;-70.552;2023-04-20T08:46:53;91765.50;;;16.91;32.81
17521;BME280;8878;-33.370;-70.552;2023-04-20T08:49:25;91756.06;;;16.93;32.83
17521;BME280;8878;-33.370;-70.552;2023-04-20T08:51:55;91761.56;;;16.88;33.61
17521;BME280;8878;-33.370;-70.552;2023-04-20T08:54:25;91762.34;;;16.80;33.79
17521;BME280;8878;-33.370;-70.552;2023-04-20T08:56:55;91756.84;;;16.85;33.93
17521;BME280;8878;-33.370;-70.552;2023-04-20T08:59:25;91749.19;;;16.92;32.34
17521;BME280;8878;-33.370;-70.552;2023-04-20T09:01:55;91754.19;;;17.11;30.85
17521;BME280;8878;-33.370;-70.552;2023-04-20T09:04:26;91756.22;;;17.05;31.43
17521;BME280;8878;-33.370;-70.552;2023-04-20T09:06:55;91757.50;;;16.91;31.09
17521;BME280;8878;-33.370;-70.552;2023-04-20T09:09:25;91751.69;;;16.97;32.36
17521;BME280;8878;-33.370;-70.552;2023-04-20T09:12:00;91761.25;;;17.07;31.94
17521;BME280;8878;-33.370;-70.552;2023-04-20T09:14:42;91750.44;;;17.12;31.91
17521;BME280;8878;-33.370;-70.552;2023-04-20T09:17:12;91755.31;;;17.18;30.91
17521;BME280;8878;-33.370;-70.552;2023-04-20T09:19:44;91755.91;;;17.33;31.28
17521;BME280;8878;-33.370;-70.552;2023-04-20T09:22:13;91760.59;;;17.36;32.06
17521;BME280;8878;-33.370;-70.552;2023-04-20T09:24:42;91759.81;;;17.44;32.05
17521;BME280;8878;-33.370;-70.552;2023-04-20T09:27:15;91749.94;;;17.27;32.32
17521;BME280;8878;-33.370;-70.552;2023-04-20T09:29:56;91751.69;;;17.23;32.23
17521;BME280;8878;-33.370;-70.552;2023-04-20T09:32:26;91761.56;;;17.22;31.33
17521;BME280;8878;-33.370;-70.552;2023-04-20T09:34:57;91765.63;;;17.20;31.62
17521;BME280;8878;-33.370;-70.552;2023-04-20T09:37:27;91764.22;;;16.88;33.27
17521;BME280;8878;-33.370;-70.552;2023-04-20T09:39:59;91767.66;;;16.71;33.10
17521;BME280;8878;-33.370;-70.552;2023-04-20T09:42:28;91772.06;;;16.67;33.63
17521;BME280;8878;-33.370;-70.552;2023-04-20T09:44:59;91775.03;;;16.66;33.29
17521;BME280;8878;-33.370;-70.552;2023-04-20T09:47:29;91772.84;;;16.76;33.65
17521;BME280;8878;-33.370;-70.552;2023-04-20T09:50:00;91779.41;;;16.62;33.93
17521;BME280;8878;-33.370;-70.552;2023-04-20T09:52:30;91778.56;;;16.53;33.84
17521;BME280;8878;-33.370;-70.552;2023-04-20T09:54:59;91782.66;;;16.59;33.40
17521;BME280;8878;-33.370;-70.552;2023-04-20T09:57:31;91785.03;;;16.60;33.32
17521;BME280;8878;-33.370;-70.552;2023-04-20T10:00:01;91786.41;;;16.58;33.03
17521;BME280;8878;-33.370;-70.552;2023-04-20T10:02:32;91788.34;;;16.66;32.67
17521;BME280;8878;-33.370;-70.552;2023-04-20T10:05:04;91786.63;;;16.61;32.35
17521;BME280;8878;-33.370;-70.552;2023-04-20T10:07:34;91788.06;;;16.76;31.64
17521;BME280;8878;-33.370;-70.552;2023-04-20T10:10:06;91788.50;;;16.78;32.18
17521;BME280;8878;-33.370;-70.552;2023-04-20T10:12:47;91794.00;;;16.73;33.25
17521;BME280;8878;-33.370;-70.552;2023-04-20T10:15:17;91789.75;;;16.72;33.34
17521;BME280;8878;-33.370;-70.552;2023-04-20T10:17:47;91791.16;;;16.78;33.28
17521;BME280;8878;-33.370;-70.552;2023-04-20T10:20:24;91794.31;;;16.89;31.54
17521;BME280;8878;-33.370;-70.552;2023-04-20T10:22:57;91789.94;;;16.93;31.95
17521;BME280;8878;-33.370;-70.552;2023-04-20T10:25:34;91797.63;;;17.03;30.52
17521;BME280;8878;-33.370;-70.552;2023-04-20T10:28:04;91804.34;;;17.00;30.87
17521;BME280;8878;-33.370;-70.552;2023-04-20T10:30:36;91801.03;;;16.77;30.62
17521;BME280;8878;-33.370;-70.552;2023-04-20T10:33:07;91795.56;;;16.82;31.07
17521;BME280;8878;-33.370;-70.552;2023-04-20T10:35:48;91807.50;;;17.02;33.29
17521;BME280;8878;-33.370;-70.552;2023-04-20T10:38:28;91799.19;;;17.04;32.96
17521;BME280;8878;-33.370;-70.552;2023-04-20T10:41:05;91795.75;;;17.03;35.40
17521;BME280;8878;-33.370;-70.552;2023-04-20T10:43:35;91790.56;;;16.98;35.73
17521;BME280;8878;-33.370;-70.552;2023-04-20T10:46:14;91791.47;;;16.85;34.24
17521;BME280;8878;-33.370;-70.552;2023-04-20T10:48:53;91793.19;;;16.72;32.55
17521;BME280;8878;-33.370;-70.552;2023-04-20T10:51:25;91788.38;;;16.83;33.54
17521;BME280;8878;-33.370;-70.552;2023-04-20T10:54:00;91796.97;;;16.80;34.20
17521;BME280;8878;-33.370;-70.552;2023-04-20T10:56:38;91795.38;;;16.70;34.57
17521;BME280;8878;-33.370;-70.552;2023-04-20T10:59:09;91805.81;;;16.50;34.11
17521;BME280;8878;-33.370;-70.552;2023-04-20T11:01:39;91800.34;;;16.55;32.70
17521;BME280;8878;-33.370;-70.552;2023-04-20T11:04:09;91797.69;;;16.55;34.29
17521;BME280;8878;-33.370;-70.552;2023-04-20T11:06:42;91805.00;;;16.32;33.04
17521;BME280;8878;-33.370;-70.552;2023-04-20T11:09:19;91801.56;;;16.49;31.42
17521;BME280;8878;-33.370;-70.552;2023-04-20T11:11:58;91804.56;;;16.56;33.61
17521;BME280;8878;-33.370;-70.552;2023-04-20T11:14:28;91802.59;;;16.61;31.95
17521;BME280;8878;-33.370;-70.552;2023-04-20T11:16:58;91803.06;;;16.72;32.64
17521;BME280;8878;-33.370;-70.552;2023-04-20T11:19:28;91800.66;;;16.53;33.34
17521;BME280;8878;-33.370;-70.552;2023-04-20T11:22:01;91804.53;;;16.38;32.58
17521;BME280;8878;-33.370;-70.552;2023-04-20T11:24:31;91808.06;;;16.65;31.93
17521;BME280;8878;-33.370;-70.552;2023-04-20T11:27:02;91803.38;;;16.62;33.75
17521;BME280;8878;-33.370;-70.552;2023-04-20T11:29:33;91817.28;;;16.59;33.31
17521;BME280;8878;-33.370;-70.552;2023-04-20T11:32:04;91812.00;;;16.67;31.93
17521;BME280;8878;-33.370;-70.552;2023-04-20T11:34:34;91814.53;;;16.81;32.11
17521;BME280;8878;-33.370;-70.552;2023-04-20T11:37:06;91816.44;;;16.89;33.48
17521;BME280;8878;-33.370;-70.552;2023-04-20T11:39:37;91822.66;;;16.84;32.63
17521;BME280;8878;-33.370;-70.552;2023-04-20T11:42:07;91818.16;;;17.02;31.31
17521;BME280;8878;-33.370;-70.552;2023-04-20T11:44:36;91819.41;;;17.22;32.21
17521;BME280;8878;-33.370;-70.552;2023-04-20T11:47:07;91818.94;;;17.20;32.05
17521;BME280;8878;-33.370;-70.552;2023-04-20T11:49:36;91823.34;;;17.25;31.38
17521;BME280;8878;-33.370;-70.552;2023-04-20T11:52:07;91816.75;;;17.39;31.80
17521;BME280;8878;-33.370;-70.552;2023-04-20T11:54:37;91815.97;;;17.39;32.67
17521;BME280;8878;-33.370;-70.552;2023-04-20T11:57:06;91823.94;;;17.56;30.03
17521;BME280;8878;-33.370;-70.552;2023-04-20T11:59:35;91828.03;;;17.71;29.88
17521;BME280;8878;-33.370;-70.552;2023-04-20T12:02:05;91827.84;;;17.84;30.01
17521;BME280;8878;-33.370;-70.552;2023-04-20T12:04:35;91818.91;;;17.89;29.14
17521;BME280;8878;-33.370;-70.552;2023-04-20T12:07:06;91819.34;;;17.99;29.54
17521;BME280;8878;-33.370;-70.552;2023-04-20T12:09:36;91823.91;;;17.90;29.63
17521;BME280;8878;-33.370;-70.552;2023-04-20T12:12:06;91825.16;;;17.93;29.88
17521;BME280;8878;-33.370;-70.552;2023-04-20T12:14:36;91832.38;;;18.01;29.71
17521;BME280;8878;-33.370;-70.552;2023-04-20T12:17:05;91822.78;;;18.09;30.26
17521;BME280;8878;-33.370;-70.552;2023-04-20T12:19:35;91833.44;;;18.09;29.95
17521;BME280;8878;-33.370;-70.552;2023-04-20T12:22:06;91828.22;;;18.21;29.15
17521;BME280;8878;-33.370;-70.552;2023-04-20T12:24:36;91828.81;;;18.26;29.04
17521;BME280;8878;-33.370;-70.552;2023-04-20T12:27:05;91826.00;;;18.31;28.64
17521;BME280;8878;-33.370;-70.552;2023-04-20T12:29:36;91819.00;;;18.48;28.78
17521;BME280;8878;-33.370;-70.552;2023-04-20T12:32:06;91827.94;;;18.60;28.19
17521;BME280;8878;-33.370;-70.552;2023-04-20T12:34:36;91824.06;;;18.78;28.21
17521;BME280;8878;-33.370;-70.552;2023-04-20T12:37:07;91829.03;;;18.89;29.04
17521;BME280;8878;-33.370;-70.552;2023-04-20T12:39:37;91840.66;;;18.93;29.80
17521;BME280;8878;-33.370;-70.552;2023-04-20T12:42:06;91841.31;;;18.90;29.10
17521;BME280;8878;-33.370;-70.552;2023-04-20T12:44:36;91840.41;;;19.06;28.49
17521;BME280;8878;-33.370;-70.552;2023-04-20T12:47:06;91839.78;;;19.30;29.22
17521;BME280;8878;-33.370;-70.552;2023-04-20T12:49:35;91837.41;;;19.29;28.90
17521;BME280;8878;-33.370;-70.552;2023-04-20T12:52:06;91834.47;;;19.42;28.26
17521;BME280;8878;-33.370;-70.552;2023-04-20T12:54:36;91830.13;;;19.59;27.97
17521;BME280;8878;-33.370;-70.552;2023-04-20T12:57:05;91830.50;;;19.69;27.84